createdAt,value
2022-10-17T00:01:19.984Z,101696.13
2022-10-17T00:03:46.404Z,101682.78
2022-10-17T00:06:15.081Z,101692.91
2022-10-17T00:08:43.441Z,101689.66
2022-10-17T00:11:16.712Z,101694.09
2022-10-17T00:13:43.318Z,101674.66
2022-10-17T00:16:09.830Z,101683.97
2022-10-17T00:18:36.199Z,101669.81
2022-10-17T00:21:02.677Z,101678.31
2022-10-17T00:23:29.218Z,101674.66
2022-10-17T00:26:03.704Z,101682.13
2022-10-17T00:28:30.996Z,101678.91
2022-10-17T00:31:03.056Z,101677.31
2022-10-17T00:33:29.785Z,101674.66
2022-10-17T00:36:13.289Z,101669.38
2022-10-17T00:38:41.508Z,101674.44
2022-10-17T00:41:15.170Z,101668.78
2022-10-17T00:44:03.538Z,101668.16
2022-10-17T00:46:35.589Z,101663.31
2022-10-17T00:49:05.025Z,101661.91
2022-10-17T00:51:38.350Z,101658.66
2022-10-17T00:54:05.266Z,101647.91
2022-10-17T00:56:32.014Z,101656.03
2022-10-17T00:58:58.488Z,101638.81
2022-10-17T01:01:25.373Z,101645.50
2022-10-17T01:03:51.783Z,101645.91
2022-10-17T01:06:18.143Z,101643.88
2022-10-17T01:08:45.109Z,101655.22
2022-10-17T01:11:27.768Z,101657.03
2022-10-17T01:14:00.335Z,101655.22
2022-10-17T01:16:44.712Z,101643.88
2022-10-17T01:19:34.472Z,101653.59
2022-10-17T01:22:14.955Z,101648.34
2022-10-17T01:25:11.833Z,101639.41
2022-10-17T01:28:12.770Z,101640.44
2022-10-17T01:31:03.625Z,101645.91
2022-10-17T01:33:41.296Z,101632.56
2022-10-17T01:36:19.246Z,101636.00
2022-10-17T01:39:11.484Z,101641.66
2022-10-17T01:41:46.968Z,101633.78
2022-10-17T01:44:36.800Z,101636.22
2022-10-17T01:47:15.863Z,101634.19
2022-10-17T01:49:45.196Z,101629.53
2022-10-17T01:52:28.165Z,101618.41
2022-10-17T01:55:10.381Z,101614.56
2022-10-17T01:57:45.044Z,101612.72
2022-10-17T02:00:16.855Z,101609.91
2022-10-17T02:02:46.371Z,101620.22
2022-10-17T02:05:12.976Z,101617.59
2022-10-17T02:07:41.771Z,101612.72
2022-10-17T02:10:19.298Z,101602.19
2022-10-17T02:12:54.412Z,101597.34
2022-10-17T02:15:46.558Z,101600.97
2022-10-17T02:18:27.836Z,101597.53
2022-10-17T02:21:02.890Z,101596.53
2022-10-17T02:24:06.996Z,101598.38
2022-10-17T02:27:01.573Z,101601.78
2022-10-17T02:29:36.381Z,101592.69
2022-10-17T02:32:13.747Z,101590.66
2022-10-17T02:34:44.120Z,101574.69
2022-10-17T02:37:14.924Z,101586.19
2022-10-17T02:39:44.263Z,101556.25
2022-10-17T02:42:13.253Z,101552.81
2022-10-17T02:44:43.092Z,101563.56
2022-10-17T02:47:18.696Z,101559.69
2022-10-17T02:49:50.711Z,101562.31
2022-10-17T02:52:26.256Z,101568.63
2022-10-17T02:55:06.194Z,101567.41
2022-10-17T02:57:46.455Z,101567.78
2022-10-17T03:00:15.241Z,101578.72
2022-10-17T03:02:47.984Z,101584.19
2022-10-17T03:05:20.636Z,101575.09
2022-10-17T03:07:47.074Z,101575.69
2022-10-17T03:10:13.622Z,101572.84
2022-10-17T03:12:39.943Z,101569.22
2022-10-17T03:15:06.977Z,101568.19
2022-10-17T03:17:33.568Z,101569.00
2022-10-17T03:19:59.914Z,101574.66
2022-10-17T03:22:26.642Z,101576.28
2022-10-17T03:24:53.197Z,101573.66
2022-10-17T03:27:19.568Z,101559.28
2022-10-17T03:29:45.886Z,101572.84
2022-10-17T03:32:12.386Z,101561.91
2022-10-17T03:34:38.947Z,101572.22
2022-10-17T03:37:05.326Z,101569.00
2022-10-17T03:39:31.680Z,101565.97
2022-10-17T03:41:58.046Z,101569.41
2022-10-17T03:44:24.394Z,101583.56
2022-10-17T03:46:50.685Z,101573.44
2022-10-17T03:49:17.009Z,101565.34
2022-10-17T03:51:43.320Z,101566.75
2022-10-17T03:54:09.670Z,101556.41
2022-10-17T03:56:35.982Z,101572.22
2022-10-17T03:59:02.301Z,101581.53
2022-10-17T04:01:28.619Z,101577.47
2022-10-17T04:03:56.780Z,101574.22
2022-10-17T04:06:23.736Z,101578.06
2022-10-17T04:08:50.277Z,101572.97
2022-10-17T04:11:20.628Z,101574.41
2022-10-17T04:13:47.657Z,101573.75
2022-10-17T04:16:16.716Z,101587.53
2022-10-17T04:18:43.805Z,101580.03
2022-10-17T04:21:11.265Z,101580.63
2022-10-17T04:23:37.811Z,101579.19
2022-10-17T04:26:05.155Z,101575.31
2022-10-17T04:28:32.578Z,101574.09
2022-10-17T04:31:01.176Z,101576.28
2022-10-17T04:33:27.825Z,101574.69
2022-10-17T04:36:10.137Z,101570.81
2022-10-17T04:38:36.917Z,101574.03
2022-10-17T04:41:05.872Z,101583.34
2022-10-17T04:43:35.195Z,101588.03
2022-10-17T04:46:03.106Z,101574.25
2022-10-17T04:48:29.992Z,101582.56
2022-10-17T04:50:58.730Z,101572.41
2022-10-17T04:53:25.270Z,101590.81
2022-10-17T04:55:51.590Z,101572.41
2022-10-17T04:58:17.914Z,101569.97
2022-10-17T05:00:44.293Z,101584.75
2022-10-17T05:03:10.674Z,101584.34
2022-10-17T05:05:38.451Z,101595.44
2022-10-17T05:08:05.813Z,101597.47
2022-10-17T05:10:39.758Z,101593.59
2022-10-17T05:13:06.385Z,101587.28
2022-10-17T05:15:32.983Z,101584.44
2022-10-17T05:17:59.311Z,101599.84
2022-10-17T05:20:26.377Z,101601.19
2022-10-17T05:22:52.869Z,101610.69
2022-10-17T05:25:19.408Z,101611.50
2022-10-17T05:27:45.992Z,101622.41
2022-10-17T05:30:12.510Z,101613.31
2022-10-17T05:32:38.834Z,101615.09
2022-10-17T05:35:05.729Z,101627.66
2022-10-17T05:37:32.358Z,101625.81
2022-10-17T05:39:58.683Z,101619.19
2022-10-17T05:42:25.171Z,101622.81
2022-10-17T05:44:51.533Z,101628.03
2022-10-17T05:47:17.945Z,101613.72
2022-10-17T05:49:48.719Z,101613.31
2022-10-17T05:52:18.557Z,101611.28
2022-10-17T05:54:44.882Z,101629.72
2022-10-17T05:57:11.481Z,101633.31
2022-10-17T05:59:37.867Z,101634.53
2022-10-17T06:02:04.322Z,101627.47
2022-10-17T06:04:30.657Z,101630.84
2022-10-17T06:06:57.041Z,101635.72
2022-10-17T06:09:24.174Z,101633.06
2022-10-17T06:11:50.521Z,101625.75
2022-10-17T06:14:16.921Z,101625.91
2022-10-17T06:16:43.221Z,101618.63
2022-10-17T06:19:09.645Z,101631.94
2022-10-17T06:21:35.970Z,101632.16
2022-10-17T06:24:02.291Z,101639.28
2022-10-17T06:26:28.623Z,101632.63
2022-10-17T06:28:55.640Z,101635.66
2022-10-17T06:31:22.013Z,101641.72
2022-10-17T06:33:48.304Z,101634.06
2022-10-17T06:36:15.471Z,101639.66
2022-10-17T06:38:41.893Z,101640.03
2022-10-17T06:41:11.975Z,101644.22
2022-10-17T06:43:38.909Z,101657.38
2022-10-17T06:46:05.971Z,101668.66
2022-10-17T06:48:33.099Z,101676.28
2022-10-17T06:51:04.962Z,101669.75
2022-10-17T06:53:34.521Z,101675.22
2022-10-17T06:56:01.502Z,101672.88
2022-10-17T06:58:32.059Z,101666.94
2022-10-17T07:01:03.382Z,101681.69
2022-10-17T07:03:30.201Z,101675.53
2022-10-17T07:05:57.311Z,101673.91
2022-10-17T07:08:24.021Z,101686.91
2022-10-17T07:10:50.745Z,101686.84
2022-10-17T07:13:17.983Z,101689.09
2022-10-17T07:15:44.480Z,101706.03
2022-10-17T07:18:10.972Z,101706.56
2022-10-17T07:20:37.772Z,101699.34
2022-10-17T07:23:04.736Z,101703.19
2022-10-17T07:25:31.182Z,101702.59
2022-10-17T07:27:58.436Z,101694.31
2022-10-17T07:30:25.182Z,101698.34
2022-10-17T07:32:53.750Z,101702.38
2022-10-17T07:35:20.687Z,101724.28
2022-10-17T07:37:47.214Z,101727.25
2022-10-17T07:40:13.639Z,101730.28
2022-10-17T07:45:11.162Z,101727.63
2022-10-17T07:47:37.470Z,101727.41
2022-10-17T07:50:05.448Z,101723.75
2022-10-17T07:52:31.926Z,101718.69
2022-10-17T07:54:59.085Z,101716.03
2022-10-17T07:57:25.827Z,101706.63
2022-10-17T07:59:52.177Z,101707.00
2022-10-17T08:02:22.839Z,101705.97
2022-10-17T08:04:49.720Z,101713.00
2022-10-17T08:07:22.959Z,101709.19
2022-10-17T08:09:51.911Z,101709.66
2022-10-17T08:12:18.391Z,101740.63
2022-10-17T08:14:44.703Z,101736.00
2022-10-17T08:17:11.081Z,101754.81
2022-10-17T08:19:40.757Z,101775.88
2022-10-17T08:22:07.642Z,101794.09
2022-10-17T08:24:34.511Z,101788.81
2022-10-17T08:27:00.886Z,101818.16
2022-10-17T08:29:27.358Z,101847.41
2022-10-17T08:31:58.545Z,101862.63
2022-10-17T08:34:27.917Z,101865.03
2022-10-17T08:36:54.334Z,101854.13
2022-10-17T08:39:20.783Z,101860.00
2022-10-17T08:42:08.371Z,101860.78
2022-10-17T08:44:40.735Z,101856.28
2022-10-17T08:47:13.305Z,101869.75
2022-10-17T08:49:46.870Z,101850.41
2022-10-17T08:52:22.367Z,101839.63
2022-10-17T08:54:49.863Z,101829.69
2022-10-17T08:57:17.335Z,101839.63
2022-10-17T08:59:45.366Z,101844.91
2022-10-17T09:02:33.501Z,101848.34
2022-10-17T09:04:59.857Z,101860.56
2022-10-17T09:07:49.902Z,101857.69
2022-10-17T09:10:32.980Z,101871.16
2022-10-17T09:13:07.997Z,101873.34
2022-10-17T09:15:41.637Z,101882.09
2022-10-17T09:18:10.573Z,101900.41
2022-10-17T09:20:46.183Z,101926.75
2022-10-17T09:23:19.684Z,101928.34
2022-10-17T09:25:50.459Z,101919.59
2022-10-17T09:28:37.025Z,101878.94
2022-10-17T09:31:26.557Z,101885.19
2022-10-17T09:33:56.532Z,101879.69
2022-10-17T09:36:32.091Z,101874.97
2022-10-17T09:39:00.753Z,101864.59
2022-10-17T09:41:51.202Z,101863.94
2022-10-17T09:44:33.581Z,101863.94
2022-10-17T09:47:15.084Z,101875.13
2022-10-17T09:49:43.855Z,101885.69
2022-10-17T09:52:25.212Z,101904.81
2022-10-17T09:54:55.901Z,101903.22
2022-10-17T09:57:23.052Z,101913.56
2022-10-17T10:00:01.906Z,101908.94
2022-10-17T10:02:30.755Z,101935.56
2022-10-17T10:05:06.260Z,101948.22
2022-10-17T10:07:38.807Z,101945.00
2022-10-17T10:10:07.264Z,101953.94
2022-10-17T10:12:36.357Z,101915.72
2022-10-17T10:15:22.759Z,101894.16
2022-10-17T10:17:49.110Z,101883.94
2022-10-17T10:20:29.885Z,101883.16
2022-10-17T10:23:15.561Z,101874.38
2022-10-17T10:25:51.914Z,101872.84
2022-10-17T10:28:18.664Z,101888.28
2022-10-17T10:30:51.101Z,101883.88
2022-10-17T10:33:21.004Z,101909.81
2022-10-17T10:35:59.357Z,101916.22
2022-10-17T10:38:25.805Z,101907.31
2022-10-17T10:40:57.538Z,101926.00
2022-10-17T10:43:46.876Z,101949.97
2022-10-17T10:46:17.980Z,101946.88
2022-10-17T10:48:57.631Z,101965.00
2022-10-17T10:51:27.151Z,101958.84
2022-10-17T10:54:10.910Z,101957.97
2022-10-17T10:56:40.608Z,101950.88
2022-10-17T10:59:31.735Z,101974.66
2022-10-17T11:02:14.319Z,101957.63
2022-10-17T11:04:44.254Z,101973.97
2022-10-17T11:07:16.584Z,101976.00
2022-10-17T11:09:58.417Z,101986.50
2022-10-17T11:12:33.895Z,101999.53
2022-10-17T11:15:31.780Z,102004.59
2022-10-17T11:18:04.962Z,102000.31
2022-10-17T11:20:51.527Z,102005.41
2022-10-17T11:24:00.967Z,102028.56
2022-10-17T11:26:31.795Z,102012.53
2022-10-17T11:29:01.913Z,102026.31
2022-10-17T11:31:36.388Z,102025.94
2022-10-17T11:34:12.011Z,102039.09
2022-10-17T11:36:43.736Z,102039.34
2022-10-17T11:39:26.094Z,102033.00
2022-10-17T11:42:04.108Z,102030.13
2022-10-17T11:44:41.067Z,102030.34
2022-10-17T11:47:13.917Z,102026.91
2022-10-17T11:52:57.170Z,102028.88
2022-10-17T11:55:26.485Z,102039.03
2022-10-17T11:58:20.851Z,102035.34
2022-10-17T12:01:26.084Z,102044.25
2022-10-17T12:04:01.437Z,102042.56
2022-10-17T12:06:43.043Z,102044.91
2022-10-17T12:09:43.556Z,102039.63
2022-10-17T12:12:09.991Z,102046.84
2022-10-17T12:14:40.990Z,102055.50
2022-10-17T12:17:32.834Z,102052.41
2022-10-17T12:20:21.546Z,102058.41
2022-10-17T12:22:49.667Z,102052.69
2022-10-17T12:25:25.710Z,102065.47
2022-10-17T12:28:25.005Z,102054.66
2022-10-17T12:31:13.123Z,102051.56
2022-10-17T12:33:50.055Z,102050.63
2022-10-17T12:36:19.066Z,102056.44
2022-10-17T12:38:49.874Z,102056.44
2022-10-17T12:41:17.462Z,102063.97
2022-10-17T12:46:44.694Z,102064.19
2022-10-17T12:49:46.234Z,102059.31
2022-10-17T12:52:31.033Z,102058.06
2022-10-17T12:55:14.421Z,102057.66
2022-10-17T12:57:59.484Z,102066.34
2022-10-17T13:00:49.701Z,102067.19
2022-10-17T13:03:30.461Z,102058.06
2022-10-17T13:06:06.441Z,102059.44
2022-10-17T13:08:42.802Z,102062.22
2022-10-17T13:11:10.557Z,102073.66
2022-10-17T13:13:49.052Z,102072.50
2022-10-17T13:16:31.887Z,102077.44
2022-10-17T13:18:59.994Z,102074.59
2022-10-17T13:21:27.653Z,102084.34
2022-10-17T13:23:54.491Z,102090.09
2022-10-17T13:26:26.322Z,102091.13
2022-10-17T13:29:11.813Z,102096.44
2022-10-17T13:31:40.575Z,102094.63
2022-10-17T13:34:17.774Z,102087.75
2022-10-17T13:36:48.850Z,102095.81
2022-10-17T13:39:23.049Z,102092.56
2022-10-17T13:41:56.317Z,102099.72
2022-10-17T13:44:27.324Z,102105.41
2022-10-17T13:46:54.660Z,102109.69
2022-10-17T13:49:41.191Z,102115.00
2022-10-17T13:52:17.323Z,102108.50
2022-10-17T13:54:47.194Z,102121.31
2022-10-17T13:57:20.268Z,102131.34
2022-10-17T13:59:50.166Z,102125.22
2022-10-17T14:02:24.057Z,102128.47
2022-10-17T14:05:20.807Z,102145.41
2022-10-17T14:08:21.653Z,102134.66
2022-10-17T14:10:47.023Z,102141.56
2022-10-17T14:13:23.626Z,102143.78
2022-10-17T14:15:51.184Z,102150.13
2022-10-17T14:18:24.295Z,102160.50
2022-10-17T14:23:43.713Z,102156.53
2022-10-17T14:26:17.253Z,102161.69
2022-10-17T14:28:46.909Z,102166.63
2022-10-17T14:31:28.704Z,102165.06
2022-10-17T14:33:55.542Z,102158.88
2022-10-17T14:36:38.965Z,102163.38
2022-10-17T14:39:11.890Z,102165.19
2022-10-17T14:41:44.518Z,102165.19
2022-10-17T14:44:24.018Z,102166.16
2022-10-17T14:46:56.278Z,102172.63
2022-10-17T14:49:34.309Z,102173.59
2022-10-17T14:52:18.259Z,102170.75
2022-10-17T14:54:47.286Z,102183.50
2022-10-17T14:57:25.733Z,102185.25
2022-10-17T14:59:54.560Z,102172.59
2022-10-17T15:02:22.582Z,102167.28
2022-10-17T15:04:48.968Z,102180.28
2022-10-17T15:07:16.898Z,102189.63
2022-10-17T15:09:44.750Z,102185.38
2022-10-17T15:12:15.335Z,102188.00
2022-10-17T15:14:41.674Z,102186.81
2022-10-17T15:17:13.156Z,102177.91
2022-10-17T15:19:39.519Z,102170.38
2022-10-17T15:22:05.815Z,102184.88
2022-10-17T15:24:32.183Z,102199.16
2022-10-17T15:26:58.541Z,102211.47
2022-10-17T15:29:24.850Z,102218.06
2022-10-17T15:31:51.147Z,102214.06
2022-10-17T15:34:17.471Z,102206.13
2022-10-17T15:36:49.942Z,102210.69
2022-10-17T15:39:16.249Z,102206.25
2022-10-17T15:41:42.634Z,102210.75
2022-10-17T15:44:08.958Z,102218.31
2022-10-17T15:46:35.824Z,102216.75
2022-10-17T15:49:05.028Z,102221.25
2022-10-17T15:51:31.330Z,102213.56
2022-10-17T15:53:57.653Z,102216.03
2022-10-17T15:56:31.296Z,102227.84
2022-10-17T15:58:58.207Z,102223.41
2022-10-17T16:01:26.953Z,102230.31
2022-10-17T16:03:53.986Z,102236.63
2022-10-17T16:06:21.586Z,102245.00
2022-10-17T16:08:48.382Z,102240.56
2022-10-17T16:11:23.756Z,102248.75
2022-10-17T16:13:53.075Z,102245.53
2022-10-17T16:16:19.792Z,102255.31
2022-10-17T16:18:46.214Z,102257.75
2022-10-17T16:21:13.435Z,102255.13
2022-10-17T16:23:40.037Z,102265.78
2022-10-17T16:26:07.019Z,102272.13
2022-10-17T16:28:34.305Z,102275.81
2022-10-17T16:31:00.716Z,102267.09
2022-10-17T16:33:27.103Z,102276.88
2022-10-17T16:35:53.532Z,102276.31
2022-10-17T16:38:19.834Z,102278.97
2022-10-17T16:40:46.256Z,102274.50
2022-10-17T16:43:13.163Z,102283.28
2022-10-17T16:45:40.057Z,102282.50
2022-10-17T16:48:06.526Z,102283.69
2022-10-17T16:50:32.879Z,102284.94
2022-10-17T16:52:59.189Z,102282.53
2022-10-17T16:55:25.536Z,102304.88
2022-10-17T16:57:51.873Z,102305.88
2022-10-17T17:00:18.270Z,102317.66
2022-10-17T17:02:47.606Z,102312.78
2022-10-17T17:05:14.107Z,102323.56
2022-10-17T17:07:40.438Z,102324.16
2022-10-17T17:10:07.078Z,102311.78
2022-10-17T17:12:34.725Z,102314.19
2022-10-17T17:15:01.439Z,102319.88
2022-10-17T17:17:44.198Z,102323.91
2022-10-17T17:20:14.283Z,102325.94
2022-10-17T17:22:40.575Z,102327.59
2022-10-17T17:25:07.192Z,102321.06
2022-10-17T17:27:33.637Z,102321.03
2022-10-17T17:29:59.971Z,102329.38
2022-10-17T17:32:26.332Z,102335.28
2022-10-17T17:34:52.642Z,102347.69
2022-10-17T17:37:19.024Z,102344.03
2022-10-17T17:39:45.342Z,102338.53
2022-10-17T17:42:11.705Z,102340.78
2022-10-17T17:44:38.076Z,102343.00
2022-10-17T17:47:04.554Z,102346.25
2022-10-17T17:49:30.904Z,102337.53
2022-10-17T17:51:57.427Z,102343.00
2022-10-17T17:54:23.781Z,102345.88
2022-10-17T17:56:50.102Z,102347.69
2022-10-17T17:59:16.428Z,102348.72
2022-10-17T18:01:43.451Z,102349.94
2022-10-17T18:04:10.749Z,102361.53
2022-10-17T18:06:38.539Z,102358.72
2022-10-17T18:09:06.249Z,102365.81
2022-10-17T18:11:32.862Z,102364.19
2022-10-17T18:14:02.148Z,102369.88
2022-10-17T18:16:30.853Z,102360.31
2022-10-17T18:19:01.480Z,102375.56
2022-10-17T18:21:31.144Z,102380.03
2022-10-17T18:23:57.506Z,102362.53
2022-10-17T18:26:23.816Z,102381.44
2022-10-17T18:28:50.147Z,102373.72
2022-10-17T18:31:21.303Z,102377.81
2022-10-17T18:33:47.612Z,102376.56
2022-10-17T18:36:15.254Z,102396.50
2022-10-17T18:38:42.373Z,102394.66
2022-10-17T18:41:14.436Z,102388.16
2022-10-17T18:43:42.531Z,102399.75
2022-10-17T18:46:16.850Z,102400.94
2022-10-17T18:48:44.728Z,102391.59
2022-10-17T18:51:12.643Z,102410.31
2022-10-17T18:53:47.660Z,102396.06
2022-10-17T18:56:14.357Z,102390.97
2022-10-17T18:58:41.185Z,102401.13
2022-10-17T19:01:13.757Z,102415.97
2022-10-17T19:03:40.164Z,102414.72
2022-10-17T19:06:07.951Z,102416.75
2022-10-17T19:08:35.735Z,102405.16
2022-10-17T19:11:10.579Z,102407.00
2022-10-17T19:13:37.476Z,102400.25
2022-10-17T19:16:15.589Z,102407.53
2022-10-17T19:18:41.868Z,102418.09
2022-10-17T19:21:10.263Z,102412.41
2022-10-17T19:23:38.004Z,102419.50
2022-10-17T19:26:08.874Z,102420.94
2022-10-17T19:28:36.652Z,102414.41
2022-10-17T19:31:04.757Z,102412.41
2022-10-17T19:33:31.864Z,102425.41
2022-10-17T19:36:00.732Z,102419.50
2022-10-17T19:38:27.453Z,102416.88
2022-10-17T19:40:54.184Z,102419.69
2022-10-17T19:43:21.458Z,102409.75
2022-10-17T19:45:58.979Z,102426.81
2022-10-17T19:48:25.876Z,102433.94
2022-10-17T19:50:52.524Z,102439.22
2022-10-17T19:53:20.371Z,102441.84
2022-10-17T19:55:46.657Z,102433.50
2022-10-17T19:58:13.238Z,102424.34
2022-10-17T20:00:46.519Z,102434.13
2022-10-17T20:03:12.926Z,102435.31
2022-10-17T20:05:39.372Z,102459.72
2022-10-17T20:08:06.102Z,102460.34
2022-10-17T20:10:33.642Z,102453.22
2022-10-17T20:13:00.081Z,102446.97
2022-10-17T20:15:26.488Z,102447.75
2022-10-17T20:17:52.818Z,102450.81
2022-10-17T20:20:19.195Z,102454.06
2022-10-17T20:22:45.525Z,102467.09
2022-10-17T20:25:11.834Z,102466.09
2022-10-17T20:27:38.177Z,102477.47
2022-10-17T20:30:05.067Z,102488.44
2022-10-17T20:32:33.785Z,102487.44
2022-10-17T20:35:01.534Z,102493.34
2022-10-17T20:37:28.032Z,102484.00
2022-10-17T20:40:16.497Z,102485.63
2022-10-17T20:42:40.789Z,102496.19
2022-10-17T20:45:07.337Z,102504.75
2022-10-17T20:47:45.955Z,102500.50
2022-10-17T20:50:14.597Z,102496.59
2022-10-17T20:52:40.894Z,102504.97
2022-10-17T20:55:07.538Z,102520.84
2022-10-17T20:57:33.856Z,102516.16
2022-10-17T21:00:00.148Z,102512.91
2022-10-17T21:02:26.510Z,102534.06
2022-10-17T21:04:52.822Z,102512.53
2022-10-17T21:07:19.145Z,102508.84
2022-10-17T21:09:45.667Z,102519.44
2022-10-17T21:12:18.057Z,102516.59
2022-10-17T21:14:52.554Z,102532.25
2022-10-17T21:17:18.944Z,102536.69
2022-10-17T21:19:45.272Z,102524.91
2022-10-17T21:22:11.557Z,102523.91
2022-10-17T21:24:37.935Z,102519.81
2022-10-17T21:27:04.269Z,102543.44
2022-10-17T21:29:30.613Z,102527.72
2022-10-17T21:31:56.932Z,102539.34
2022-10-17T21:34:23.421Z,102543.00
2022-10-17T21:36:50.354Z,102547.06
2022-10-17T21:39:17.005Z,102548.88
2022-10-17T21:41:44.180Z,102547.44
2022-10-17T21:44:13.682Z,102539.31
2022-10-17T21:46:40.382Z,102538.69
2022-10-17T21:49:06.795Z,102542.34
2022-10-17T21:51:33.255Z,102526.44
2022-10-17T21:53:59.644Z,102542.47
2022-10-17T21:56:28.546Z,102547.91
2022-10-17T21:58:55.531Z,102542.38
2022-10-17T22:01:24.647Z,102541.56
2022-10-17T22:03:53.345Z,102542.81
2022-10-17T22:09:14.285Z,102549.16
2022-10-17T22:11:41.126Z,102559.91
2022-10-17T22:14:11.150Z,102551.53
2022-10-17T22:16:38.355Z,102565.59
2022-10-17T22:19:06.642Z,102551.94
2022-10-17T22:21:35.171Z,102561.13
2022-10-17T22:24:05.723Z,102549.50
2022-10-17T22:26:33.914Z,102547.88
2022-10-17T22:29:01.024Z,102544.41
2022-10-17T22:31:27.638Z,102550.13
2022-10-17T22:33:53.987Z,102541.13
2022-10-17T22:36:20.359Z,102546.38
2022-10-17T22:38:46.712Z,102543.91
2022-10-17T22:41:13.074Z,102555.84
2022-10-17T22:43:39.565Z,102564.09
2022-10-17T22:46:06.974Z,102561.91
2022-10-17T22:48:34.176Z,102563.69
2022-10-17T22:51:01.369Z,102562.81
2022-10-17T22:53:28.140Z,102549.75
2022-10-17T22:55:57.855Z,102560.34
2022-10-17T22:58:24.953Z,102566.84
2022-10-17T23:00:52.299Z,102575.94
2022-10-17T23:03:21.028Z,102573.69
2022-10-17T23:05:48.084Z,102572.41
2022-10-17T23:08:16.035Z,102573.16
2022-10-17T23:10:42.345Z,102569.47
2022-10-17T23:13:08.646Z,102580.09
2022-10-17T23:15:35.178Z,102576.63
2022-10-17T23:18:02.000Z,102562.81
2022-10-17T23:20:29.780Z,102561.81
2022-10-17T23:22:57.367Z,102557.53
2022-10-17T23:25:24.104Z,102575.28
2022-10-17T23:27:50.468Z,102565.88
2022-10-17T23:30:16.953Z,102561.88
2022-10-17T23:32:43.768Z,102580.03
2022-10-17T23:35:10.250Z,102566.03
2022-10-17T23:37:37.372Z,102573.63
2022-10-17T23:40:05.359Z,102575.25
2022-10-17T23:42:31.930Z,102569.16
2022-10-17T23:44:58.305Z,102573.44
2022-10-17T23:47:24.642Z,102577.69
2022-10-17T23:49:50.967Z,102573.81
2022-10-17T23:52:17.320Z,102580.34
2022-10-17T23:54:43.668Z,102564.66
2022-10-17T23:57:10.096Z,102574.44
2022-10-17T23:59:36.464Z,102577.53
